createdAt,value
2023-10-09T00:00:36.920Z,81.17
2023-10-09T00:03:44.799Z,81.31
2023-10-09T00:06:47.960Z,81.71
2023-10-09T00:09:52.127Z,80.67
2023-10-09T00:12:54.725Z,81.36
2023-10-09T00:16:02.918Z,81.10
2023-10-09T00:19:20.897Z,81.34
2023-10-09T00:22:31.121Z,81.10
2023-10-09T00:25:37.451Z,81.46
2023-10-09T00:28:44.828Z,80.87
2023-10-09T00:31:51.381Z,81.08
2023-10-09T00:34:59.459Z,80.51
2023-10-09T00:38:08.320Z,79.98
2023-10-09T00:41:12.004Z,81.30
2023-10-09T00:44:15.495Z,80.71
2023-10-09T00:47:22.045Z,80.36
2023-10-09T00:50:25.196Z,80.33
2023-10-09T00:53:34.608Z,79.96
2023-10-09T00:56:44.343Z,81.59
2023-10-09T00:59:52.141Z,80.95
2023-10-09T01:03:11.832Z,79.78
2023-10-09T01:06:15.003Z,79.56
2023-10-09T01:09:24.406Z,78.52
2023-10-09T01:12:30.180Z,77.88
2023-10-09T01:15:46.092Z,77.98
2023-10-09T01:18:54.394Z,77.28
2023-10-09T01:22:03.896Z,76.68
2023-10-09T01:25:07.746Z,76.19
2023-10-09T01:28:10.465Z,76.52
2023-10-09T01:31:13.903Z,77.55
2023-10-09T01:34:16.988Z,76.59
2023-10-09T01:37:24.357Z,76.98
2023-10-09T01:40:36.632Z,77.61
2023-10-09T01:43:39.994Z,77.35
2023-10-09T01:46:44.238Z,77.05
2023-10-09T01:49:50.660Z,77.55
2023-10-09T01:52:53.571Z,78.28
2023-10-09T01:55:56.917Z,77.36
2023-10-09T01:59:06.825Z,77.22
2023-10-09T02:02:27.189Z,77.37
2023-10-09T02:05:34.821Z,76.74
2023-10-09T02:08:37.781Z,77.59
2023-10-09T02:11:42.410Z,77.17
2023-10-09T02:14:45.337Z,78.24
2023-10-09T02:18:02.067Z,82.74
2023-10-09T02:21:07.659Z,86.23
2023-10-09T02:24:10.844Z,88.99
2023-10-09T02:27:14.191Z,89.94
2023-10-09T02:30:18.701Z,90.52
2023-10-09T02:33:29.122Z,90.52
2023-10-09T02:36:32.333Z,90.27
2023-10-09T02:39:44.617Z,90.29
2023-10-09T02:42:47.681Z,91.26
2023-10-09T02:45:52.754Z,92.14
2023-10-09T02:48:59.296Z,93.89
2023-10-09T02:52:07.896Z,94.57
2023-10-09T02:55:14.761Z,94.68
2023-10-09T02:58:22.235Z,95.66
2023-10-09T03:01:25.132Z,95.12
2023-10-09T03:04:32.262Z,94.35
2023-10-09T03:07:35.506Z,93.18
2023-10-09T03:10:39.968Z,92.04
2023-10-09T03:13:44.825Z,91.28
2023-10-09T03:16:50.186Z,90.67
2023-10-09T03:19:53.509Z,90.36
2023-10-09T03:22:57.042Z,89.83
2023-10-09T03:26:15.033Z,88.85
2023-10-09T03:29:26.279Z,89.13
2023-10-09T03:32:29.261Z,88.91
2023-10-09T03:35:35.258Z,88.16
2023-10-09T03:38:39.530Z,87.92
2023-10-09T03:41:43.237Z,87.80
2023-10-09T03:44:53.323Z,87.77
2023-10-09T03:48:06.796Z,87.14
2023-10-09T03:51:10.296Z,87.17
2023-10-09T03:54:15.188Z,87.00
2023-10-09T03:57:21.320Z,86.81
2023-10-09T04:00:28.952Z,86.36
2023-10-09T04:03:32.104Z,85.87
2023-10-09T04:06:36.559Z,85.64
2023-10-09T04:09:45.687Z,85.63
2023-10-09T04:12:50.631Z,84.71
2023-10-09T04:15:54.837Z,84.30
2023-10-09T04:19:07.005Z,83.74
2023-10-09T04:22:26.375Z,83.79
2023-10-09T04:25:43.381Z,84.06
2023-10-09T04:28:52.480Z,83.32
2023-10-09T04:32:01.498Z,83.31
2023-10-09T04:35:25.758Z,83.74
2023-10-09T04:38:29.345Z,84.41
2023-10-09T04:41:44.421Z,84.01
2023-10-09T04:45:05.753Z,82.89
2023-10-09T04:48:09.230Z,83.05
2023-10-09T04:51:30.946Z,82.86
2023-10-09T04:55:02.940Z,83.31
2023-10-09T04:58:08.476Z,82.93
2023-10-09T05:01:15.787Z,82.55
2023-10-09T05:04:36.553Z,81.88
2023-10-09T05:07:55.798Z,82.09
2023-10-09T05:11:02.088Z,81.63
2023-10-09T05:14:14.511Z,81.67
2023-10-09T05:17:17.443Z,81.81
2023-10-09T05:20:29.696Z,81.33
2023-10-09T05:23:45.508Z,78.59
2023-10-09T05:26:50.394Z,78.50
2023-10-09T05:30:14.187Z,78.32
2023-10-09T05:33:29.549Z,77.89
2023-10-09T05:36:33.220Z,78.02
2023-10-09T05:39:42.846Z,78.16
2023-10-09T05:42:46.864Z,78.97
2023-10-09T05:46:08.496Z,78.86
2023-10-09T05:49:21.178Z,78.22
2023-10-09T05:52:53.796Z,78.36
2023-10-09T05:56:15.012Z,79.26
2023-10-09T05:59:53.109Z,83.12
2023-10-09T06:03:14.070Z,78.14
2023-10-09T06:06:34.216Z,78.72
2023-10-09T06:09:51.284Z,79.11
2023-10-09T06:13:05.017Z,79.85
2023-10-09T06:16:20.971Z,80.22
2023-10-09T06:19:27.840Z,79.73
2023-10-09T06:22:49.054Z,78.96
2023-10-09T06:26:02.038Z,79.44
2023-10-09T06:29:17.610Z,79.38
2023-10-09T06:32:20.675Z,79.69
2023-10-09T06:35:23.597Z,78.81
2023-10-09T06:38:41.450Z,77.55
2023-10-09T06:41:46.510Z,77.40
2023-10-09T06:44:55.561Z,75.82
2023-10-09T06:48:08.790Z,75.88
2023-10-09T06:51:42.183Z,75.97
2023-10-09T06:54:51.496Z,75.23
2023-10-09T06:57:55.708Z,74.61
2023-10-09T07:01:16.876Z,74.06
2023-10-09T07:04:20.860Z,73.88
2023-10-09T07:07:25.892Z,73.10
2023-10-09T07:10:33.974Z,71.99
2023-10-09T07:13:38.327Z,71.60
2023-10-09T07:16:58.260Z,71.23
2023-10-09T07:20:36.653Z,70.33
2023-10-09T07:23:49.251Z,68.40
2023-10-09T07:26:54.614Z,67.81
2023-10-09T07:29:57.682Z,67.84
2023-10-09T07:33:12.603Z,68.52
2023-10-09T07:36:15.986Z,65.78
2023-10-09T07:39:18.758Z,64.98
2023-10-09T07:42:34.615Z,64.00
2023-10-09T07:45:37.592Z,64.81
2023-10-09T07:48:49.844Z,64.99
2023-10-09T07:51:53.778Z,63.02
2023-10-09T07:55:03.673Z,62.30
2023-10-09T07:58:12.005Z,63.40
2023-10-09T08:01:23.660Z,63.20
2023-10-09T08:04:41.166Z,61.71
2023-10-09T08:08:05.232Z,62.16
2023-10-09T08:11:29.845Z,64.07
2023-10-09T08:14:34.945Z,64.48
2023-10-09T08:17:38.788Z,63.50
2023-10-09T08:20:59.526Z,62.62
2023-10-09T08:24:06.370Z,62.34
2023-10-09T08:27:29.145Z,61.02
2023-10-09T08:30:47.955Z,61.01
2023-10-09T08:37:06.126Z,61.00
2023-10-09T08:40:10.242Z,60.23
2023-10-09T08:43:17.626Z,60.37
2023-10-09T08:46:29.891Z,60.93
2023-10-09T08:49:35.696Z,59.95
2023-10-09T08:52:38.937Z,59.59
2023-10-09T08:55:42.447Z,60.22
2023-10-09T08:58:45.226Z,60.15
2023-10-09T09:01:59.519Z,60.02
2023-10-09T09:05:17.894Z,59.77
2023-10-09T09:08:27.156Z,60.50
2023-10-09T09:11:36.996Z,60.24
2023-10-09T09:14:40.170Z,59.64
2023-10-09T09:17:43.579Z,59.98
2023-10-09T09:20:54.775Z,59.98
2023-10-09T09:24:02.795Z,58.85
2023-10-09T09:27:19.828Z,59.62
2023-10-09T09:30:36.689Z,59.80
2023-10-09T09:33:43.743Z,59.17
2023-10-09T09:36:59.717Z,59.80
2023-10-09T09:40:24.295Z,59.15
2023-10-09T09:43:30.036Z,58.99
2023-10-09T09:46:38.583Z,58.84
2023-10-09T09:49:44.563Z,58.87
2023-10-09T09:52:48.203Z,57.18
2023-10-09T09:55:59.301Z,56.47
2023-10-09T09:59:05.574Z,56.39
2023-10-09T10:02:12.002Z,56.60
2023-10-09T10:05:17.307Z,56.74
2023-10-09T10:08:21.501Z,56.24
2023-10-09T10:11:47.291Z,56.29
2023-10-09T10:15:00.799Z,56.97
2023-10-09T10:18:08.479Z,56.34
2023-10-09T10:21:17.198Z,55.84
2023-10-09T10:24:52.838Z,55.32
2023-10-09T10:28:40.472Z,56.58
2023-10-09T10:31:57.744Z,56.64
2023-10-09T10:35:07.878Z,55.05
2023-10-09T10:38:35.310Z,54.88
2023-10-09T10:41:55.361Z,54.01
2023-10-09T10:44:58.225Z,52.19
2023-10-09T10:48:07.931Z,50.56
2023-10-09T10:51:12.748Z,49.33
2023-10-09T10:54:34.846Z,49.97
2023-10-09T10:57:56.524Z,51.44
2023-10-09T11:00:59.193Z,50.43
2023-10-09T11:04:13.748Z,49.33
2023-10-09T11:07:25.858Z,47.90
2023-10-09T11:10:30.394Z,46.10
2023-10-09T11:13:53.598Z,43.34
2023-10-09T11:17:00.057Z,43.14
2023-10-09T11:20:24.259Z,43.70
2023-10-09T11:23:36.220Z,41.35
2023-10-09T11:26:41.722Z,39.41
2023-10-09T11:29:53.321Z,40.59
2023-10-09T11:33:15.436Z,42.72
2023-10-09T11:36:32.463Z,46.18
2023-10-09T11:39:36.131Z,45.47
2023-10-09T11:42:39.721Z,47.11
2023-10-09T11:45:55.646Z,47.74
2023-10-09T11:49:21.032Z,48.14
2023-10-09T11:52:36.634Z,54.25
2023-10-09T11:55:39.863Z,56.10
2023-10-09T11:58:42.549Z,54.58
2023-10-09T12:01:53.420Z,54.05
2023-10-09T12:04:57.174Z,55.64
2023-10-09T12:08:02.454Z,59.70
2023-10-09T12:11:09.488Z,60.00
2023-10-09T12:14:12.587Z,60.40
2023-10-09T12:17:15.577Z,63.53
2023-10-09T12:20:38.564Z,65.44
2023-10-09T12:23:42.297Z,64.32
2023-10-09T12:26:47.070Z,63.32
2023-10-09T12:29:50.889Z,63.96
2023-10-09T12:32:56.121Z,61.63
2023-10-09T12:36:02.763Z,61.01
2023-10-09T12:39:06.906Z,60.35
2023-10-09T12:42:10.286Z,61.86
2023-10-09T12:45:14.030Z,61.82
2023-10-09T12:48:17.120Z,61.77
2023-10-09T12:51:19.824Z,63.34
2023-10-09T12:54:28.427Z,64.41
2023-10-09T12:57:31.327Z,62.97
2023-10-09T13:00:38.324Z,64.23
2023-10-09T13:03:41.436Z,65.78
2023-10-09T13:06:47.796Z,60.47
2023-10-09T13:10:09.478Z,57.82
2023-10-09T13:13:12.997Z,59.49
2023-10-09T13:16:26.062Z,64.75
2023-10-09T13:19:29.315Z,71.96
2023-10-09T13:22:31.883Z,78.32
2023-10-09T13:25:41.008Z,79.88
2023-10-09T13:28:46.439Z,82.50
2023-10-09T13:31:52.537Z,83.02
2023-10-09T13:34:56.755Z,87.75
2023-10-09T13:38:00.289Z,79.76
2023-10-09T13:41:03.145Z,80.12
2023-10-09T13:44:06.168Z,81.24
2023-10-09T13:47:20.318Z,76.82
2023-10-09T13:50:31.796Z,80.05
2023-10-09T13:53:45.968Z,88.52
2023-10-09T13:56:54.218Z,87.03
2023-10-09T13:59:57.184Z,89.55
2023-10-09T14:03:12.582Z,92.32
2023-10-09T14:06:15.598Z,90.20
2023-10-09T14:09:33.299Z,90.53
2023-10-09T14:12:41.361Z,85.79
2023-10-09T14:15:47.134Z,88.54
2023-10-09T14:18:50.061Z,89.80
2023-10-09T14:21:52.759Z,93.60
2023-10-09T14:25:00.544Z,90.49
2023-10-09T14:28:08.668Z,89.99
2023-10-09T14:31:13.788Z,99.67
2023-10-09T14:34:16.364Z,100.00
2023-10-09T14:37:20.604Z,100.00
2023-10-09T14:40:31.115Z,100.00
2023-10-09T14:43:35.253Z,100.00
2023-10-09T14:46:38.126Z,100.00
2023-10-09T14:49:48.174Z,100.00
2023-10-09T14:52:54.555Z,99.72
2023-10-09T14:55:58.139Z,98.58
2023-10-09T14:59:01.249Z,100.00
2023-10-09T15:02:06.555Z,100.00
2023-10-09T15:05:13.277Z,99.37
2023-10-09T15:08:16.477Z,99.86
2023-10-09T15:11:26.476Z,100.00
2023-10-09T15:14:29.596Z,100.00
2023-10-09T15:17:32.340Z,100.00
2023-10-09T15:20:36.429Z,100.00
2023-10-09T15:23:39.173Z,100.00
2023-10-09T15:26:58.281Z,100.00
2023-10-09T15:30:00.970Z,100.00
2023-10-09T15:33:06.267Z,100.00
2023-10-09T15:36:14.157Z,100.00
2023-10-09T15:39:20.721Z,100.00
2023-10-09T15:42:23.682Z,100.00
2023-10-09T15:45:29.444Z,100.00
2023-10-09T15:48:33.781Z,100.00
2023-10-09T15:51:36.669Z,100.00
2023-10-09T15:54:41.446Z,100.00
2023-10-09T15:57:44.272Z,100.00
2023-10-09T16:00:46.866Z,100.00
2023-10-09T16:03:51.113Z,100.00
2023-10-09T16:06:56.665Z,100.00
2023-10-09T16:10:00.011Z,100.00
2023-10-09T16:13:02.769Z,100.00
2023-10-09T16:16:09.234Z,100.00
2023-10-09T16:19:12.289Z,100.00
2023-10-09T16:22:15.111Z,100.00
2023-10-09T16:25:21.781Z,100.00
2023-10-09T16:28:26.047Z,100.00
2023-10-09T16:31:28.828Z,100.00
2023-10-09T16:34:33.616Z,100.00
2023-10-09T16:37:36.261Z,100.00
2023-10-09T16:40:40.505Z,100.00
2023-10-09T16:43:43.755Z,100.00
2023-10-09T16:46:47.531Z,100.00
2023-10-09T16:49:52.827Z,100.00
2023-10-09T16:52:56.211Z,100.00
2023-10-09T16:56:02.121Z,100.00
2023-10-09T16:59:09.174Z,100.00
2023-10-09T17:02:14.549Z,100.00
2023-10-09T17:05:29.204Z,100.00
2023-10-09T17:08:35.901Z,100.00
2023-10-09T17:11:42.693Z,100.00
2023-10-09T17:14:46.062Z,100.00
2023-10-09T17:17:51.994Z,100.00
2023-10-09T17:20:55.969Z,100.00
2023-10-09T17:23:59.649Z,100.00
2023-10-09T17:27:02.923Z,100.00
2023-10-09T17:30:06.823Z,100.00
2023-10-09T17:33:09.746Z,100.00
2023-10-09T17:36:18.959Z,100.00
2023-10-09T17:39:27.314Z,99.69
2023-10-09T17:42:30.910Z,99.57
2023-10-09T17:45:42.375Z,100.00
2023-10-09T17:48:46.375Z,100.00
2023-10-09T17:51:49.434Z,100.00
2023-10-09T17:54:53.642Z,100.00
2023-10-09T17:57:57.266Z,100.00
2023-10-09T18:01:05.434Z,100.00
2023-10-09T18:04:08.813Z,100.00
2023-10-09T18:07:14.832Z,100.00
2023-10-09T18:10:17.868Z,100.00
2023-10-09T18:13:20.639Z,100.00
2023-10-09T18:16:24.201Z,100.00
2023-10-09T18:19:30.175Z,100.00
2023-10-09T18:22:33.268Z,100.00
2023-10-09T18:25:41.418Z,100.00
2023-10-09T18:28:49.572Z,100.00
2023-10-09T18:31:52.576Z,100.00
2023-10-09T18:34:55.998Z,100.00
2023-10-09T18:38:01.699Z,100.00
2023-10-09T18:41:08.640Z,100.00
2023-10-09T18:44:11.668Z,100.00
2023-10-09T18:47:20.601Z,100.00
2023-10-09T18:50:25.869Z,98.49
2023-10-09T18:53:32.854Z,98.20
2023-10-09T18:56:35.860Z,98.93
2023-10-09T18:59:38.721Z,98.48
2023-10-09T19:02:41.440Z,98.17
2023-10-09T19:05:45.766Z,100.00
2023-10-09T19:08:50.356Z,100.00
2023-10-09T19:11:58.092Z,100.00
2023-10-09T19:15:00.984Z,100.00
2023-10-09T19:18:04.926Z,100.00
2023-10-09T19:21:12.297Z,100.00
2023-10-09T19:24:15.262Z,100.00
2023-10-09T19:27:19.552Z,100.00
2023-10-09T19:30:22.989Z,100.00
2023-10-09T19:33:26.725Z,100.00
2023-10-09T19:36:30.419Z,100.00
2023-10-09T19:39:33.424Z,100.00
2023-10-09T19:42:40.461Z,100.00
2023-10-09T19:45:43.232Z,100.00
2023-10-09T19:48:47.457Z,100.00
2023-10-09T19:51:52.590Z,100.00
2023-10-09T19:54:57.514Z,100.00
2023-10-09T19:58:01.640Z,100.00
2023-10-09T20:01:12.357Z,100.00
2023-10-09T20:04:16.830Z,100.00
2023-10-09T20:07:19.492Z,100.00
2023-10-09T20:10:22.485Z,100.00
2023-10-09T20:13:25.174Z,100.00
2023-10-09T20:16:28.371Z,100.00
2023-10-09T20:19:32.787Z,100.00
2023-10-09T20:22:36.487Z,100.00
2023-10-09T20:25:39.093Z,100.00
2023-10-09T20:28:42.126Z,100.00
2023-10-09T20:31:48.408Z,100.00
2023-10-09T20:34:58.055Z,100.00
2023-10-09T20:38:03.067Z,100.00
2023-10-09T20:41:09.084Z,100.00
2023-10-09T20:44:13.818Z,100.00
2023-10-09T20:47:16.950Z,100.00
2023-10-09T20:50:19.547Z,100.00
2023-10-09T20:53:22.424Z,100.00
2023-10-09T20:56:26.384Z,100.00
2023-10-09T20:59:29.380Z,100.00
2023-10-09T21:02:32.223Z,100.00
2023-10-09T21:05:36.278Z,100.00
2023-10-09T21:08:39.353Z,100.00
2023-10-09T21:11:42.585Z,100.00
2023-10-09T21:14:45.147Z,100.00
2023-10-09T21:17:53.454Z,100.00
2023-10-09T21:20:56.372Z,100.00
2023-10-09T21:23:59.617Z,100.00
2023-10-09T21:27:02.250Z,100.00
2023-10-09T21:30:07.330Z,100.00
2023-10-09T21:33:10.050Z,100.00
2023-10-09T21:36:14.024Z,100.00
2023-10-09T21:39:18.946Z,100.00
2023-10-09T21:42:21.827Z,100.00
2023-10-09T21:45:25.554Z,100.00
2023-10-09T21:48:28.326Z,100.00
2023-10-09T21:51:30.942Z,100.00
2023-10-09T21:54:33.824Z,100.00
2023-10-09T21:57:36.782Z,100.00
2023-10-09T22:00:39.583Z,100.00
2023-10-09T22:03:42.805Z,100.00
2023-10-09T22:06:45.546Z,100.00
2023-10-09T22:09:48.808Z,100.00
2023-10-09T22:12:51.424Z,100.00
2023-10-09T22:15:55.060Z,100.00
2023-10-09T22:19:13.518Z,100.00
2023-10-09T22:22:23.540Z,100.00
2023-10-09T22:25:26.883Z,100.00
2023-10-09T22:28:35.567Z,100.00
2023-10-09T22:31:40.006Z,100.00
2023-10-09T22:34:43.284Z,100.00
2023-10-09T22:37:46.069Z,100.00
2023-10-09T22:40:53.026Z,100.00
2023-10-09T22:43:57.021Z,100.00
2023-10-09T22:47:09.319Z,100.00
2023-10-09T22:50:22.203Z,100.00
2023-10-09T22:53:39.013Z,100.00
2023-10-09T22:56:44.745Z,100.00
2023-10-09T22:59:51.739Z,100.00
2023-10-09T23:02:58.172Z,100.00
2023-10-09T23:06:10.077Z,100.00
2023-10-09T23:09:16.959Z,100.00
2023-10-09T23:12:26.388Z,100.00
2023-10-09T23:15:34.034Z,100.00
2023-10-09T23:19:06.549Z,100.00
2023-10-09T23:22:21.060Z,100.00
2023-10-09T23:25:35.990Z,100.00
2023-10-09T23:28:39.539Z,100.00
2023-10-09T23:31:57.862Z,100.00
2023-10-09T23:35:00.625Z,100.00
2023-10-09T23:38:32.995Z,100.00
2023-10-09T23:41:35.981Z,100.00
2023-10-09T23:44:38.946Z,100.00
2023-10-09T23:47:42.511Z,100.00
2023-10-09T23:50:45.738Z,100.00
2023-10-09T23:54:02.326Z,100.00
2023-10-09T23:57:06.927Z,100.00
